sensor_id;sensor_type;location;lat;lon;timestamp;temperature;humidity
60287;DHT22;46141;52.382;5.270;2023-06-14T00:01:38;24.60;53.90
60287;DHT22;46141;52.382;5.270;2023-06-14T00:04:04;24.50;53.80
60287;DHT22;46141;52.382;5.270;2023-06-14T00:06:34;24.50;53.80
60287;DHT22;46141;52.382;5.270;2023-06-14T00:08:59;24.40;53.70
60287;DHT22;46141;52.382;5.270;2023-06-14T00:11:25;24.40;53.70
60287;DHT22;46141;52.382;5.270;2023-06-14T00:13:52;24.40;53.60
60287;DHT22;46141;52.382;5.270;2023-06-14T00:16:18;24.40;53.50
60287;DHT22;46141;52.382;5.270;2023-06-14T00:18:45;24.40;53.60
60287;DHT22;46141;52.382;5.270;2023-06-14T00:21:11;24.40;53.40
60287;DHT22;46141;52.382;5.270;2023-06-14T00:23:37;24.40;53.40
60287;DHT22;46141;52.382;5.270;2023-06-14T00:26:03;24.30;53.40
60287;DHT22;46141;52.382;5.270;2023-06-14T00:28:29;24.30;53.30
60287;DHT22;46141;52.382;5.270;2023-06-14T00:30:54;24.30;53.30
60287;DHT22;46141;52.382;5.270;2023-06-14T00:33:20;24.20;53.20
60287;DHT22;46141;52.382;5.270;2023-06-14T00:35:46;24.20;53.30
60287;DHT22;46141;52.382;5.270;2023-06-14T00:38:13;24.20;53.20
60287;DHT22;46141;52.382;5.270;2023-06-14T00:40:39;24.20;53.20
60287;DHT22;46141;52.382;5.270;2023-06-14T00:43:04;24.10;53.30
60287;DHT22;46141;52.382;5.270;2023-06-14T00:45:30;24.10;53.20
60287;DHT22;46141;52.382;5.270;2023-06-14T00:47:57;24.00;53.20
60287;DHT22;46141;52.382;5.270;2023-06-14T00:50:23;24.00;53.20
60287;DHT22;46141;52.382;5.270;2023-06-14T00:52:49;24.00;53.20
60287;DHT22;46141;52.382;5.270;2023-06-14T00:55:16;24.00;53.10
60287;DHT22;46141;52.382;5.270;2023-06-14T00:57:42;24.00;53.00
60287;DHT22;46141;52.382;5.270;2023-06-14T01:00:08;24.00;53.00
60287;DHT22;46141;52.382;5.270;2023-06-14T01:02:38;23.90;53.00
60287;DHT22;46141;52.382;5.270;2023-06-14T01:05:05;23.90;53.00
60287;DHT22;46141;52.382;5.270;2023-06-14T01:10:59;23.80;53.00
60287;DHT22;46141;52.382;5.270;2023-06-14T01:13:35;23.90;53.00
60287;DHT22;46141;52.382;5.270;2023-06-14T01:16:02;23.80;52.80
60287;DHT22;46141;52.382;5.270;2023-06-14T01:18:29;23.80;52.80
60287;DHT22;46141;52.382;5.270;2023-06-14T01:20:55;23.80;52.80
60287;DHT22;46141;52.382;5.270;2023-06-14T01:23:23;23.70;52.70
60287;DHT22;46141;52.382;5.270;2023-06-14T01:25:50;23.70;52.60
60287;DHT22;46141;52.382;5.270;2023-06-14T01:28:20;23.90;52.50
60287;DHT22;46141;52.382;5.270;2023-06-14T01:30:52;24.10;52.20
60287;DHT22;46141;52.382;5.270;2023-06-14T01:33:22;24.20;52.00
60287;DHT22;46141;52.382;5.270;2023-06-14T01:35:51;24.40;52.20
60287;DHT22;46141;52.382;5.270;2023-06-14T01:38:24;24.40;52.20
60287;DHT22;46141;52.382;5.270;2023-06-14T01:40:53;24.50;52.20
60287;DHT22;46141;52.382;5.270;2023-06-14T01:43:20;24.60;52.30
60287;DHT22;46141;52.382;5.270;2023-06-14T01:45:48;24.60;52.50
60287;DHT22;46141;52.382;5.270;2023-06-14T01:48:17;24.60;52.50
60287;DHT22;46141;52.382;5.270;2023-06-14T01:50:43;24.60;52.50
60287;DHT22;46141;52.382;5.270;2023-06-14T01:53:09;24.70;52.50
60287;DHT22;46141;52.382;5.270;2023-06-14T01:55:35;24.70;52.60
60287;DHT22;46141;52.382;5.270;2023-06-14T01:58:03;24.70;52.60
60287;DHT22;46141;52.382;5.270;2023-06-14T02:00:29;24.70;52.60
60287;DHT22;46141;52.382;5.270;2023-06-14T02:02:54;24.70;52.70
60287;DHT22;46141;52.382;5.270;2023-06-14T02:05:21;24.70;52.70
60287;DHT22;46141;52.382;5.270;2023-06-14T02:07:47;24.80;52.70
60287;DHT22;46141;52.382;5.270;2023-06-14T02:10:13;24.80;52.80
60287;DHT22;46141;52.382;5.270;2023-06-14T02:12:40;24.80;52.70
60287;DHT22;46141;52.382;5.270;2023-06-14T02:15:07;24.80;52.80
60287;DHT22;46141;52.382;5.270;2023-06-14T02:17:33;24.80;52.80
60287;DHT22;46141;52.382;5.270;2023-06-14T02:20:00;24.80;52.80
60287;DHT22;46141;52.382;5.270;2023-06-14T02:22:26;24.80;52.80
60287;DHT22;46141;52.382;5.270;2023-06-14T02:24:51;24.80;52.80
60287;DHT22;46141;52.382;5.270;2023-06-14T02:27:18;24.80;52.80
60287;DHT22;46141;52.382;5.270;2023-06-14T02:29:43;24.80;52.80
60287;DHT22;46141;52.382;5.270;2023-06-14T02:32:09;24.80;52.80
60287;DHT22;46141;52.382;5.270;2023-06-14T02:34:35;24.80;52.70
60287;DHT22;46141;52.382;5.270;2023-06-14T02:37:02;24.80;52.70
60287;DHT22;46141;52.382;5.270;2023-06-14T02:39:30;24.90;52.70
60287;DHT22;46141;52.382;5.270;2023-06-14T02:41:56;24.90;52.70
60287;DHT22;46141;52.382;5.270;2023-06-14T02:44:26;24.90;52.80
60287;DHT22;46141;52.382;5.270;2023-06-14T02:46:53;24.90;52.70
60287;DHT22;46141;52.382;5.270;2023-06-14T02:49:19;24.90;52.70
60287;DHT22;46141;52.382;5.270;2023-06-14T02:51:45;24.90;52.70
60287;DHT22;46141;52.382;5.270;2023-06-14T02:54:11;24.90;52.80
60287;DHT22;46141;52.382;5.270;2023-06-14T02:56:36;24.90;52.80
60287;DHT22;46141;52.382;5.270;2023-06-14T02:59:02;24.90;52.70
60287;DHT22;46141;52.382;5.270;2023-06-14T03:01:27;24.90;52.70
60287;DHT22;46141;52.382;5.270;2023-06-14T03:04:01;24.90;52.70
60287;DHT22;46141;52.382;5.270;2023-06-14T03:06:28;24.90;52.70
60287;DHT22;46141;52.382;5.270;2023-06-14T03:08:58;24.90;52.70
60287;DHT22;46141;52.382;5.270;2023-06-14T03:11:30;24.90;52.70
60287;DHT22;46141;52.382;5.270;2023-06-14T03:13:56;24.90;52.70
60287;DHT22;46141;52.382;5.270;2023-06-14T03:16:22;24.90;52.70
60287;DHT22;46141;52.382;5.270;2023-06-14T03:18:52;24.90;52.70
60287;DHT22;46141;52.382;5.270;2023-06-14T03:21:19;24.90;52.70
60287;DHT22;46141;52.382;5.270;2023-06-14T03:23:46;24.90;52.70
60287;DHT22;46141;52.382;5.270;2023-06-14T03:26:12;24.90;52.70
60287;DHT22;46141;52.382;5.270;2023-06-14T03:28:46;24.90;52.70
60287;DHT22;46141;52.382;5.270;2023-06-14T03:31:13;24.90;52.70
60287;DHT22;46141;52.382;5.270;2023-06-14T03:33:39;24.90;52.70
60287;DHT22;46141;52.382;5.270;2023-06-14T03:36:05;24.90;52.70
60287;DHT22;46141;52.382;5.270;2023-06-14T03:38:32;24.90;52.70
60287;DHT22;46141;52.382;5.270;2023-06-14T03:40:58;24.90;52.70
60287;DHT22;46141;52.382;5.270;2023-06-14T03:43:23;24.90;52.70
60287;DHT22;46141;52.382;5.270;2023-06-14T03:45:49;24.90;52.70
60287;DHT22;46141;52.382;5.270;2023-06-14T03:48:15;24.90;52.70
60287;DHT22;46141;52.382;5.270;2023-06-14T03:50:40;24.80;52.60
60287;DHT22;46141;52.382;5.270;2023-06-14T03:53:08;24.90;52.70
60287;DHT22;46141;52.382;5.270;2023-06-14T03:55:34;24.90;52.70
60287;DHT22;46141;52.382;5.270;2023-06-14T03:58:00;24.90;52.70
60287;DHT22;46141;52.382;5.270;2023-06-14T04:00:26;24.90;52.70
60287;DHT22;46141;52.382;5.270;2023-06-14T04:02:52;24.80;52.60
60287;DHT22;46141;52.382;5.270;2023-06-14T04:05:18;24.90;52.70
60287;DHT22;46141;52.382;5.270;2023-06-14T04:07:47;24.90;52.80
60287;DHT22;46141;52.382;5.270;2023-06-14T04:10:15;24.90;52.70
60287;DHT22;46141;52.382;5.270;2023-06-14T04:12:42;24.80;52.70
60287;DHT22;46141;52.382;5.270;2023-06-14T04:15:09;24.90;52.70
60287;DHT22;46141;52.382;5.270;2023-06-14T04:17:35;24.90;53.30
60287;DHT22;46141;52.382;5.270;2023-06-14T04:20:02;24.90;53.30
60287;DHT22;46141;52.382;5.270;2023-06-14T04:22:30;24.80;52.70
60287;DHT22;46141;52.382;5.270;2023-06-14T04:24:57;24.80;52.70
60287;DHT22;46141;52.382;5.270;2023-06-14T04:27:23;24.90;52.70
60287;DHT22;46141;52.382;5.270;2023-06-14T04:29:52;24.80;52.70
60287;DHT22;46141;52.382;5.270;2023-06-14T04:32:26;24.80;52.70
60287;DHT22;46141;52.382;5.270;2023-06-14T04:34:53;24.80;52.70
60287;DHT22;46141;52.382;5.270;2023-06-14T04:37:20;24.90;52.70
60287;DHT22;46141;52.382;5.270;2023-06-14T04:39:47;24.80;52.70
60287;DHT22;46141;52.382;5.270;2023-06-14T04:42:13;24.80;52.70
60287;DHT22;46141;52.382;5.270;2023-06-14T04:44:41;24.80;52.70
60287;DHT22;46141;52.382;5.270;2023-06-14T04:47:06;24.80;52.70
60287;DHT22;46141;52.382;5.270;2023-06-14T04:49:32;24.80;52.80
60287;DHT22;46141;52.382;5.270;2023-06-14T04:51:59;24.80;52.80
60287;DHT22;46141;52.382;5.270;2023-06-14T04:54:27;24.80;52.80
60287;DHT22;46141;52.382;5.270;2023-06-14T04:56:53;24.80;52.80
60287;DHT22;46141;52.382;5.270;2023-06-14T04:59:21;24.80;52.80
60287;DHT22;46141;52.382;5.270;2023-06-14T05:01:49;24.80;52.80
60287;DHT22;46141;52.382;5.270;2023-06-14T05:04:15;24.80;52.90
60287;DHT22;46141;52.382;5.270;2023-06-14T05:06:42;24.80;52.80
60287;DHT22;46141;52.382;5.270;2023-06-14T05:09:13;24.80;52.80
60287;DHT22;46141;52.382;5.270;2023-06-14T05:11:39;24.80;52.80
60287;DHT22;46141;52.382;5.270;2023-06-14T05:14:05;24.80;52.80
60287;DHT22;46141;52.382;5.270;2023-06-14T05:16:31;24.80;52.80
60287;DHT22;46141;52.382;5.270;2023-06-14T05:18:58;24.80;52.90
60287;DHT22;46141;52.382;5.270;2023-06-14T05:21:24;24.80;52.80
60287;DHT22;46141;52.382;5.270;2023-06-14T05:23:49;24.80;52.80
60287;DHT22;46141;52.382;5.270;2023-06-14T05:26:16;24.80;52.80
60287;DHT22;46141;52.382;5.270;2023-06-14T05:28:42;24.80;52.90
60287;DHT22;46141;52.382;5.270;2023-06-14T05:31:08;24.80;52.90
60287;DHT22;46141;52.382;5.270;2023-06-14T05:33:33;24.80;52.90
60287;DHT22;46141;52.382;5.270;2023-06-14T05:35:59;24.80;52.80
60287;DHT22;46141;52.382;5.270;2023-06-14T05:38:25;24.80;52.90
60287;DHT22;46141;52.382;5.270;2023-06-14T05:40:51;24.80;52.90
60287;DHT22;46141;52.382;5.270;2023-06-14T05:43:16;24.80;52.90
60287;DHT22;46141;52.382;5.270;2023-06-14T05:45:42;24.90;53.00
60287;DHT22;46141;52.382;5.270;2023-06-14T05:48:08;24.80;52.90
60287;DHT22;46141;52.382;5.270;2023-06-14T05:50:33;24.80;53.00
60287;DHT22;46141;52.382;5.270;2023-06-14T05:52:59;24.90;53.00
60287;DHT22;46141;52.382;5.270;2023-06-14T05:55:25;24.80;53.00
60287;DHT22;46141;52.382;5.270;2023-06-14T05:57:50;24.90;53.00
60287;DHT22;46141;52.382;5.270;2023-06-14T06:00:17;24.80;53.10
60287;DHT22;46141;52.382;5.270;2023-06-14T06:02:44;24.80;53.00
60287;DHT22;46141;52.382;5.270;2023-06-14T06:05:10;24.80;53.00
60287;DHT22;46141;52.382;5.270;2023-06-14T06:07:37;24.80;53.00
60287;DHT22;46141;52.382;5.270;2023-06-14T06:10:04;24.80;53.00
60287;DHT22;46141;52.382;5.270;2023-06-14T06:12:30;24.80;53.00
60287;DHT22;46141;52.382;5.270;2023-06-14T06:14:56;24.80;53.00
60287;DHT22;46141;52.382;5.270;2023-06-14T06:17:22;24.90;53.10
60287;DHT22;46141;52.382;5.270;2023-06-14T06:19:47;24.90;53.00
60287;DHT22;46141;52.382;5.270;2023-06-14T06:22:13;24.90;53.00
60287;DHT22;46141;52.382;5.270;2023-06-14T06:24:38;24.90;53.00
60287;DHT22;46141;52.382;5.270;2023-06-14T06:27:04;24.90;53.00
60287;DHT22;46141;52.382;5.270;2023-06-14T06:29:30;24.90;52.90
60287;DHT22;46141;52.382;5.270;2023-06-14T06:31:55;24.90;52.90
60287;DHT22;46141;52.382;5.270;2023-06-14T06:34:21;25.00;53.00
60287;DHT22;46141;52.382;5.270;2023-06-14T06:36:47;25.00;52.90
60287;DHT22;46141;52.382;5.270;2023-06-14T06:39:13;25.00;52.90
60287;DHT22;46141;52.382;5.270;2023-06-14T06:41:40;25.00;52.90
60287;DHT22;46141;52.382;5.270;2023-06-14T06:44:07;25.00;52.90
60287;DHT22;46141;52.382;5.270;2023-06-14T06:46:33;25.00;52.90
60287;DHT22;46141;52.382;5.270;2023-06-14T06:48:59;25.00;52.80
60287;DHT22;46141;52.382;5.270;2023-06-14T06:51:25;24.90;52.40
60287;DHT22;46141;52.382;5.270;2023-06-14T06:53:54;24.80;52.60
60287;DHT22;46141;52.382;5.270;2023-06-14T06:56:21;24.60;52.50
60287;DHT22;46141;52.382;5.270;2023-06-14T06:58:51;24.60;52.50
60287;DHT22;46141;52.382;5.270;2023-06-14T07:01:17;24.50;52.50
60287;DHT22;46141;52.382;5.270;2023-06-14T07:03:43;24.50;52.40
60287;DHT22;46141;52.382;5.270;2023-06-14T07:06:09;24.50;52.60
60287;DHT22;46141;52.382;5.270;2023-06-14T07:08:35;24.50;52.60
60287;DHT22;46141;52.382;5.270;2023-06-14T07:11:01;24.60;52.40
60287;DHT22;46141;52.382;5.270;2023-06-14T07:13:27;24.60;53.00
60287;DHT22;46141;52.382;5.270;2023-06-14T07:16:00;24.60;52.50
60287;DHT22;46141;52.382;5.270;2023-06-14T07:18:26;24.60;52.40
60287;DHT22;46141;52.382;5.270;2023-06-14T07:20:52;24.60;52.40
60287;DHT22;46141;52.382;5.270;2023-06-14T07:23:19;24.60;52.40
60287;DHT22;46141;52.382;5.270;2023-06-14T07:25:45;24.60;52.50
60287;DHT22;46141;52.382;5.270;2023-06-14T07:28:11;24.70;52.40
60287;DHT22;46141;52.382;5.270;2023-06-14T07:30:37;24.80;52.30
60287;DHT22;46141;52.382;5.270;2023-06-14T07:33:02;24.70;52.00
60287;DHT22;46141;52.382;5.270;2023-06-14T07:35:28;24.80;52.00
60287;DHT22;46141;52.382;5.270;2023-06-14T07:37:54;24.80;51.80
60287;DHT22;46141;52.382;5.270;2023-06-14T07:40:19;24.80;51.70
60287;DHT22;46141;52.382;5.270;2023-06-14T07:42:45;24.80;51.70
60287;DHT22;46141;52.382;5.270;2023-06-14T07:45:15;24.80;51.70
60287;DHT22;46141;52.382;5.270;2023-06-14T07:47:41;24.80;51.40
60287;DHT22;46141;52.382;5.270;2023-06-14T07:50:06;24.80;51.20
60287;DHT22;46141;52.382;5.270;2023-06-14T07:52:32;24.80;51.30
60287;DHT22;46141;52.382;5.270;2023-06-14T07:54:58;24.90;51.20
60287;DHT22;46141;52.382;5.270;2023-06-14T07:57:24;24.90;51.20
60287;DHT22;46141;52.382;5.270;2023-06-14T07:59:50;25.00;51.20
60287;DHT22;46141;52.382;5.270;2023-06-14T08:02:16;25.00;51.20
60287;DHT22;46141;52.382;5.270;2023-06-14T08:04:42;25.00;51.40
60287;DHT22;46141;52.382;5.270;2023-06-14T08:07:08;25.10;51.40
60287;DHT22;46141;52.382;5.270;2023-06-14T08:09:34;25.00;51.00
60287;DHT22;46141;52.382;5.270;2023-06-14T08:12:00;25.10;51.10
60287;DHT22;46141;52.382;5.270;2023-06-14T08:14:26;25.10;51.00
60287;DHT22;46141;52.382;5.270;2023-06-14T08:16:51;25.10;50.70
60287;DHT22;46141;52.382;5.270;2023-06-14T08:19:17;25.10;50.80
60287;DHT22;46141;52.382;5.270;2023-06-14T08:21:43;25.20;50.90
60287;DHT22;46141;52.382;5.270;2023-06-14T08:24:12;25.20;51.10
60287;DHT22;46141;52.382;5.270;2023-06-14T08:26:38;25.30;50.90
60287;DHT22;46141;52.382;5.270;2023-06-14T08:29:05;25.30;51.00
60287;DHT22;46141;52.382;5.270;2023-06-14T08:31:32;25.30;50.70
60287;DHT22;46141;52.382;5.270;2023-06-14T08:33:58;25.40;50.40
60287;DHT22;46141;52.382;5.270;2023-06-14T08:36:24;25.40;50.30
60287;DHT22;46141;52.382;5.270;2023-06-14T08:38:50;25.40;50.30
60287;DHT22;46141;52.382;5.270;2023-06-14T08:41:20;25.50;50.20
60287;DHT22;46141;52.382;5.270;2023-06-14T08:43:47;25.50;50.50
60287;DHT22;46141;52.382;5.270;2023-06-14T08:46:13;25.50;50.30
60287;DHT22;46141;52.382;5.270;2023-06-14T08:48:42;25.50;50.10
60287;DHT22;46141;52.382;5.270;2023-06-14T08:51:11;25.60;49.90
60287;DHT22;46141;52.382;5.270;2023-06-14T08:53:38;25.60;50.90
60287;DHT22;46141;52.382;5.270;2023-06-14T08:56:08;25.60;49.90
60287;DHT22;46141;52.382;5.270;2023-06-14T08:58:43;25.60;49.80
60287;DHT22;46141;52.382;5.270;2023-06-14T09:01:13;25.70;49.90
60287;DHT22;46141;52.382;5.270;2023-06-14T09:03:42;25.60;49.70
60287;DHT22;46141;52.382;5.270;2023-06-14T09:06:08;25.70;50.00
60287;DHT22;46141;52.382;5.270;2023-06-14T09:08:48;25.70;49.40
60287;DHT22;46141;52.382;5.270;2023-06-14T09:11:17;25.70;49.30
60287;DHT22;46141;52.382;5.270;2023-06-14T09:13:44;25.80;49.20
60287;DHT22;46141;52.382;5.270;2023-06-14T09:16:10;25.80;49.20
60287;DHT22;46141;52.382;5.270;2023-06-14T09:18:37;25.80;49.00
60287;DHT22;46141;52.382;5.270;2023-06-14T09:21:06;25.80;49.00
60287;DHT22;46141;52.382;5.270;2023-06-14T09:23:43;25.90;50.30
60287;DHT22;46141;52.382;5.270;2023-06-14T09:26:15;25.90;49.40
60287;DHT22;46141;52.382;5.270;2023-06-14T09:28:42;25.90;48.90
60287;DHT22;46141;52.382;5.270;2023-06-14T09:31:10;25.90;49.40
60287;DHT22;46141;52.382;5.270;2023-06-14T09:33:36;26.00;48.50
60287;DHT22;46141;52.382;5.270;2023-06-14T09:36:03;26.30;48.10
60287;DHT22;46141;52.382;5.270;2023-06-14T09:38:29;26.40;47.70
60287;DHT22;46141;52.382;5.270;2023-06-14T09:40:59;26.40;47.60
60287;DHT22;46141;52.382;5.270;2023-06-14T09:43:25;26.50;48.10
60287;DHT22;46141;52.382;5.270;2023-06-14T09:45:54;26.50;47.90
60287;DHT22;46141;52.382;5.270;2023-06-14T09:48:20;26.40;48.30
60287;DHT22;46141;52.382;5.270;2023-06-14T09:50:46;26.30;48.80
60287;DHT22;46141;52.382;5.270;2023-06-14T09:53:15;26.30;48.10
60287;DHT22;46141;52.382;5.270;2023-06-14T09:55:42;26.30;48.90
60287;DHT22;46141;52.382;5.270;2023-06-14T09:58:10;26.30;48.60
60287;DHT22;46141;52.382;5.270;2023-06-14T10:00:39;26.30;48.00
60287;DHT22;46141;52.382;5.270;2023-06-14T10:03:14;26.40;48.00
60287;DHT22;46141;52.382;5.270;2023-06-14T10:05:45;26.30;48.10
60287;DHT22;46141;52.382;5.270;2023-06-14T10:08:15;26.30;48.00
60287;DHT22;46141;52.382;5.270;2023-06-14T10:10:44;26.40;47.90
60287;DHT22;46141;52.382;5.270;2023-06-14T10:13:11;26.40;47.80
60287;DHT22;46141;52.382;5.270;2023-06-14T10:18:41;26.40;47.80
60287;DHT22;46141;52.382;5.270;2023-06-14T10:21:43;26.50;47.90
60287;DHT22;46141;52.382;5.270;2023-06-14T10:24:15;26.50;47.60
60287;DHT22;46141;52.382;5.270;2023-06-14T10:26:56;26.50;47.70
60287;DHT22;46141;52.382;5.270;2023-06-14T10:29:22;26.50;47.70
60287;DHT22;46141;52.382;5.270;2023-06-14T10:31:50;26.50;48.00
60287;DHT22;46141;52.382;5.270;2023-06-14T10:34:24;26.50;47.60
60287;DHT22;46141;52.382;5.270;2023-06-14T10:37:13;26.60;47.60
60287;DHT22;46141;52.382;5.270;2023-06-14T10:39:48;26.60;47.40
60287;DHT22;46141;52.382;5.270;2023-06-14T10:42:15;26.60;47.10
60287;DHT22;46141;52.382;5.270;2023-06-14T10:44:51;26.60;47.30
60287;DHT22;46141;52.382;5.270;2023-06-14T10:49:51;26.70;47.40
60287;DHT22;46141;52.382;5.270;2023-06-14T10:52:22;26.70;47.10
60287;DHT22;46141;52.382;5.270;2023-06-14T10:55:07;26.70;47.70
60287;DHT22;46141;52.382;5.270;2023-06-14T10:57:54;26.70;46.80
60287;DHT22;46141;52.382;5.270;2023-06-14T11:00:28;26.70;46.80
60287;DHT22;46141;52.382;5.270;2023-06-14T11:05:27;26.80;46.90
60287;DHT22;46141;52.382;5.270;2023-06-14T11:12:55;26.80;46.10
60287;DHT22;46141;52.382;5.270;2023-06-14T11:15:28;26.90;46.20
60287;DHT22;46141;52.382;5.270;2023-06-14T11:17:54;26.90;47.20
60287;DHT22;46141;52.382;5.270;2023-06-14T11:20:25;26.90;46.40
60287;DHT22;46141;52.382;5.270;2023-06-14T11:22:52;26.80;45.70
60287;DHT22;46141;52.382;5.270;2023-06-14T11:25:18;26.90;46.00
60287;DHT22;46141;52.382;5.270;2023-06-14T11:27:44;26.90;45.80
60287;DHT22;46141;52.382;5.270;2023-06-14T11:30:10;26.90;45.70
60287;DHT22;46141;52.382;5.270;2023-06-14T11:32:37;26.90;45.50
60287;DHT22;46141;52.382;5.270;2023-06-14T11:35:04;27.00;45.50
60287;DHT22;46141;52.382;5.270;2023-06-14T11:37:31;27.00;45.70
60287;DHT22;46141;52.382;5.270;2023-06-14T11:40:00;27.00;45.70
60287;DHT22;46141;52.382;5.270;2023-06-14T11:42:29;27.00;45.50
60287;DHT22;46141;52.382;5.270;2023-06-14T11:44:55;27.00;45.50
60287;DHT22;46141;52.382;5.270;2023-06-14T11:47:22;27.00;45.40
60287;DHT22;46141;52.382;5.270;2023-06-14T11:49:47;27.00;45.30
60287;DHT22;46141;52.382;5.270;2023-06-14T11:52:13;27.10;45.30
60287;DHT22;46141;52.382;5.270;2023-06-14T11:54:40;27.10;45.50
60287;DHT22;46141;52.382;5.270;2023-06-14T11:57:07;27.10;45.40
60287;DHT22;46141;52.382;5.270;2023-06-14T11:59:38;27.10;45.60
60287;DHT22;46141;52.382;5.270;2023-06-14T12:02:05;27.20;45.60
60287;DHT22;46141;52.382;5.270;2023-06-14T12:04:31;27.10;45.20
60287;DHT22;46141;52.382;5.270;2023-06-14T12:07:08;27.10;45.60
60287;DHT22;46141;52.382;5.270;2023-06-14T12:09:35;27.20;45.40
60287;DHT22;46141;52.382;5.270;2023-06-14T12:12:00;27.20;45.10
60287;DHT22;46141;52.382;5.270;2023-06-14T12:14:31;27.20;45.20
60287;DHT22;46141;52.382;5.270;2023-06-14T12:17:06;27.30;45.10
60287;DHT22;46141;52.382;5.270;2023-06-14T12:19:33;27.20;44.60
60287;DHT22;46141;52.382;5.270;2023-06-14T12:22:06;27.30;44.90
60287;DHT22;46141;52.382;5.270;2023-06-14T12:24:34;27.30;44.70
60287;DHT22;46141;52.382;5.270;2023-06-14T12:27:00;27.30;44.70
60287;DHT22;46141;52.382;5.270;2023-06-14T12:29:28;27.40;44.70
60287;DHT22;46141;52.382;5.270;2023-06-14T12:31:54;27.40;44.60
60287;DHT22;46141;52.382;5.270;2023-06-14T12:34:25;27.40;45.30
60287;DHT22;46141;52.382;5.270;2023-06-14T12:36:54;27.50;44.70
60287;DHT22;46141;52.382;5.270;2023-06-14T12:39:21;27.50;44.60
60287;DHT22;46141;52.382;5.270;2023-06-14T12:41:48;27.50;44.90
60287;DHT22;46141;52.382;5.270;2023-06-14T12:44:14;27.50;44.40
60287;DHT22;46141;52.382;5.270;2023-06-14T12:46:41;27.50;44.30
60287;DHT22;46141;52.382;5.270;2023-06-14T12:49:09;27.60;44.10
60287;DHT22;46141;52.382;5.270;2023-06-14T12:51:36;27.60;44.60
60287;DHT22;46141;52.382;5.270;2023-06-14T12:54:02;27.60;43.90
60287;DHT22;46141;52.382;5.270;2023-06-14T12:56:28;27.60;44.30
60287;DHT22;46141;52.382;5.270;2023-06-14T12:58:54;27.70;44.30
60287;DHT22;46141;52.382;5.270;2023-06-14T13:01:20;27.70;43.90
60287;DHT22;46141;52.382;5.270;2023-06-14T13:03:49;27.70;43.90
60287;DHT22;46141;52.382;5.270;2023-06-14T13:06:17;27.80;44.20
60287;DHT22;46141;52.382;5.270;2023-06-14T13:08:43;27.80;43.80
60287;DHT22;46141;52.382;5.270;2023-06-14T13:11:09;27.80;43.80
60287;DHT22;46141;52.382;5.270;2023-06-14T13:13:34;27.90;43.90
60287;DHT22;46141;52.382;5.270;2023-06-14T13:16:00;27.80;44.10
60287;DHT22;46141;52.382;5.270;2023-06-14T13:18:26;27.80;44.20
60287;DHT22;46141;52.382;5.270;2023-06-14T13:20:52;27.80;44.30
60287;DHT22;46141;52.382;5.270;2023-06-14T13:23:17;27.90;43.70
60287;DHT22;46141;52.382;5.270;2023-06-14T13:25:43;27.90;43.70
60287;DHT22;46141;52.382;5.270;2023-06-14T13:28:09;27.90;43.20
60287;DHT22;46141;52.382;5.270;2023-06-14T13:30:35;28.00;43.30
60287;DHT22;46141;52.382;5.270;2023-06-14T13:33:01;28.00;43.00
60287;DHT22;46141;52.382;5.270;2023-06-14T13:35:27;28.10;43.00
60287;DHT22;46141;52.382;5.270;2023-06-14T13:37:52;28.10;42.90
60287;DHT22;46141;52.382;5.270;2023-06-14T13:40:18;28.20;43.10
60287;DHT22;46141;52.382;5.270;2023-06-14T13:42:44;28.10;43.30
60287;DHT22;46141;52.382;5.270;2023-06-14T13:45:11;28.20;43.50
60287;DHT22;46141;52.382;5.270;2023-06-14T13:47:37;28.10;43.10
60287;DHT22;46141;52.382;5.270;2023-06-14T13:50:04;28.20;43.00
60287;DHT22;46141;52.382;5.270;2023-06-14T13:52:30;28.20;42.80
60287;DHT22;46141;52.382;5.270;2023-06-14T13:54:56;28.30;42.50
60287;DHT22;46141;52.382;5.270;2023-06-14T13:57:21;28.30;42.60
60287;DHT22;46141;52.382;5.270;2023-06-14T13:59:47;28.40;42.60
60287;DHT22;46141;52.382;5.270;2023-06-14T14:02:13;28.40;42.70
60287;DHT22;46141;52.382;5.270;2023-06-14T14:04:40;28.40;43.00
60287;DHT22;46141;52.382;5.270;2023-06-14T14:07:07;28.40;42.40
60287;DHT22;46141;52.382;5.270;2023-06-14T14:09:34;28.40;42.70
60287;DHT22;46141;52.382;5.270;2023-06-14T14:12:03;28.50;42.40
60287;DHT22;46141;52.382;5.270;2023-06-14T14:14:31;28.50;42.80
60287;DHT22;46141;52.382;5.270;2023-06-14T14:16:57;28.50;43.00
60287;DHT22;46141;52.382;5.270;2023-06-14T14:19:23;28.50;42.60
60287;DHT22;46141;52.382;5.270;2023-06-14T14:21:49;28.60;42.60
60287;DHT22;46141;52.382;5.270;2023-06-14T14:24:15;28.60;42.40
60287;DHT22;46141;52.382;5.270;2023-06-14T14:26:42;28.60;42.20
60287;DHT22;46141;52.382;5.270;2023-06-14T14:29:08;28.70;42.30
60287;DHT22;46141;52.382;5.270;2023-06-14T14:31:36;28.70;42.10
60287;DHT22;46141;52.382;5.270;2023-06-14T14:34:02;28.70;42.40
60287;DHT22;46141;52.382;5.270;2023-06-14T14:36:28;28.70;42.20
60287;DHT22;46141;52.382;5.270;2023-06-14T14:38:53;28.70;42.40
60287;DHT22;46141;52.382;5.270;2023-06-14T14:41:19;28.70;42.50
60287;DHT22;46141;52.382;5.270;2023-06-14T14:43:45;28.70;42.50
60287;DHT22;46141;52.382;5.270;2023-06-14T14:46:11;28.80;42.70
60287;DHT22;46141;52.382;5.270;2023-06-14T14:48:36;28.80;42.30
60287;DHT22;46141;52.382;5.270;2023-06-14T14:51:02;28.90;42.00
60287;DHT22;46141;52.382;5.270;2023-06-14T14:53:28;28.90;41.80
60287;DHT22;46141;52.382;5.270;2023-06-14T14:55:54;28.90;42.80
60287;DHT22;46141;52.382;5.270;2023-06-14T14:58:19;28.90;42.90
60287;DHT22;46141;52.382;5.270;2023-06-14T15:00:46;28.90;42.50
60287;DHT22;46141;52.382;5.270;2023-06-14T15:03:12;29.00;42.70
60287;DHT22;46141;52.382;5.270;2023-06-14T15:05:38;29.00;42.60
60287;DHT22;46141;52.382;5.270;2023-06-14T15:08:04;29.00;42.30
60287;DHT22;46141;52.382;5.270;2023-06-14T15:10:36;29.00;42.20
60287;DHT22;46141;52.382;5.270;2023-06-14T15:13:01;29.00;42.10
60287;DHT22;46141;52.382;5.270;2023-06-14T15:15:27;29.00;41.80
60287;DHT22;46141;52.382;5.270;2023-06-14T15:17:53;29.10;42.20
60287;DHT22;46141;52.382;5.270;2023-06-14T15:20:18;29.10;41.90
60287;DHT22;46141;52.382;5.270;2023-06-14T15:22:44;29.10;41.70
60287;DHT22;46141;52.382;5.270;2023-06-14T15:25:10;29.10;42.30
60287;DHT22;46141;52.382;5.270;2023-06-14T15:27:36;29.10;42.30
60287;DHT22;46141;52.382;5.270;2023-06-14T15:30:01;29.10;42.30
60287;DHT22;46141;52.382;5.270;2023-06-14T15:32:28;29.20;42.20
60287;DHT22;46141;52.382;5.270;2023-06-14T15:34:54;29.20;42.40
60287;DHT22;46141;52.382;5.270;2023-06-14T15:37:19;29.10;41.80
60287;DHT22;46141;52.382;5.270;2023-06-14T15:39:45;29.20;41.10
60287;DHT22;46141;52.382;5.270;2023-06-14T15:42:11;29.20;41.30
60287;DHT22;46141;52.382;5.270;2023-06-14T15:44:37;29.20;42.10
60287;DHT22;46141;52.382;5.270;2023-06-14T15:47:02;29.30;41.20